Simmesport, LA (71369)

7:13 AM CDT on September 02, 2015 (GMT -0500)
Hamburg community | | Change Station
CLOSE
Current Station
Personal Weather Station
Location: Moreauville, LA
Elevation: 75 ft
Nearby Weather Stations

Elev 75 ft 31.03 °N, 91.93 °W | Updated 15 minutes ago

Rain
Rain
73.6 °F
Feels Like 73.6 °F
N
2.2
Wind Variable Wind from North

Today
High -- | Low -- °F
--% Chance of Precip.
Yesterday
High -- | Low -- °F
Precip. -- in
6:43 AM 7:29 PM
Waning Gibbous, 81% visible
Pressure 30.07 in
Visibility 5.0 miles
Clouds Mostly Cloudy 11000 ft
Dew Point 73 °F
Humidity 99%
Rainfall 0.00 in
Snow Depth Not available.
UV 0 out of 12
Pollen 8.00 out of 12
Air Quality Not available.
Flu Activity Not available.
METAR KHZR 021155Z AUTO 00000KT 5SM BR BKN110 24/23 A3007 RMK AO2 T02350230 10242 20235
Pressure 30.07 in
Visibility 5.0 miles
Clouds Mostly Cloudy 11000 ft
Dew Point 73 °F
Humidity 99%
Rainfall 0.00 in
Snow Depth Not available.
UV 0 out of 12
Pollen 8.00 out of 12
Air Quality Not available.
Flu Activity Not available.
METAR KHZR 021155Z AUTO 00000KT 5SM BR BKN110 24/23 A3007 RMK AO2 T02350230 10242 20235

10-Day Weather Forecast

×

Almanac

Astronomy

Sep. 02, 2015 Rise Set
Actual Time
Civil Twilight
Nautical Twilight
Astronomical Twilight
Moon
Length of Visible Light
Length of Day
Tomorrow will be .
, % of the Moon is Illuminated

Today's Extremes

State Highs State Lows

Community

WunderPhotos

Upload Photos

1,851,738 photos uploaded!

WunderBlogs® & News

Nearby

Air Quality

  Air Quality AQ Index Pollutant
Not available.

Snow Depth

Station Depth Elevation

Earthquake Activity

City Distance Mag. Time & Date
Minimum magnitude displayed is 2.5.

Coastal Water Temperatures

Place Temperature

Stations

Nearby Weather Stations

Station Location Temp. Windchill Dew Point Humidity Wind Precip. Elev Updated Type